Terminal Aerodrome Forecast
Issued by NWS Cleveland, OH

Home | Current Version | Previous Version | Text Only | Print | Product List | Glossary Off
Versions: 1 2 3 4 5 6 7 8 9 10 11 12 13 14 15 16 17

000
FTUS41 KCLE 010534
TAFERI
TAF
KERI 010534Z 0106/0206 20006KT P6SM SCT040 BKN250
      TEMPO 0106/0109 4SM -TSRA BR OVC040CB
     FM010900 22006KT 6SM BR BKN035
      TEMPO 0109/0113 4SM BR BKN020
     FM011400 27008KT P6SM BKN050
     FM020200 28004KT P6SM SCT050 BKN250=

USA.gov is the U.S. government's official web portal to all federal, state and local government web resources and services.